Time;durP1;ratioP1;P1;durP2;ratioP2;P2;SDS_P1;SDS_P2;PMS_P1;PMS_P2;Temp;Humidity;BMP_temperature;BMP_pressure;BME280_temperature;BME280_humidity;BME280_pressure;Samples;Min_cycle;Max_cycle;Signal;HPM_P1;HPM_P2
2021/12/01 00:00:17;;;;;;;6.32;1.70;;;4.30;92.80;;;;;;5056657;28;20040;-83
2021/12/01 00:02:43;;;;;;;6.45;2.53;;;4.30;92.60;;;;;;5059406;28;20110;-82
2021/12/01 00:05:10;;;;;;;6.68;1.50;;;4.30;92.60;;;;;;5057394;28;20060;-82
2021/12/01 00:07:36;;;;;;;6.15;1.50;;;4.40;92.50;;;;;;5072925;28;20065;-82
2021/12/01 00:10:08;;;;;;;3.67;1.20;;;4.40;92.20;;;;;;5040912;28;20040;-83
2021/12/01 00:12:50;;;;;;;8.32;1.80;;;4.50;92.10;;;;;;5075099;28;20097;-83
2021/12/01 00:15:28;;;;;;;1.33;1.20;;;4.50;91.80;;;;;;5057463;28;20116;-82
2021/12/01 00:17:54;;;;;;;2.95;1.17;;;4.60;91.70;;;;;;5058456;28;20079;-83
2021/12/01 00:20:22;;;;;;;3.20;1.20;;;4.60;91.20;;;;;;5074907;28;20032;-82
2021/12/01 00:22:50;;;;;;;3.45;1.60;;;4.70;91.10;;;;;;5041127;28;20056;-82
2021/12/01 00:25:25;;;;;;;3.28;1.10;;;4.70;90.80;;;;;;5058815;28;20081;-82
2021/12/01 00:28:00;;;;;;;4.03;1.50;;;4.80;90.70;;;;;;5075145;28;20028;-81
2021/12/01 00:30:26;;;;;;;7.60;1.52;;;4.80;90.50;;;;;;5074395;28;20040;-81
2021/12/01 00:32:54;;;;;;;4.65;2.47;;;4.80;90.40;;;;;;5074595;28;20052;-81
2021/12/01 00:35:22;;;;;;;2.50;1.05;;;4.90;90.20;;;;;;5057176;28;20025;-82
2021/12/01 00:37:50;;;;;;;5.47;1.35;;;4.90;90.20;;;;;;5038986;28;20561;-81
2021/12/01 00:40:17;;;;;;;3.95;1.42;;;4.90;90.10;;;;;;5037592;28;20509;-83
2021/12/01 00:42:50;;;;;;;6.13;1.50;;;4.90;90.00;;;;;;5056552;28;20017;-82
2021/12/01 00:45:21;;;;;;;3.70;1.40;;;4.90;89.80;;;;;;5057253;28;20123;-82
2021/12/01 00:47:53;;;;;;;3.88;1.40;;;4.90;89.90;;;;;;5063510;28;20021;-82
2021/12/01 00:50:31;;;;;;;3.08;1.33;;;4.90;90.00;;;;;;5063856;28;20106;-82
2021/12/01 00:53:02;;;;;;;5.63;1.20;;;5.00;90.00;;;;;;5027955;28;20040;-81
2021/12/01 00:55:29;;;;;;;;;;;5.00;90.00;;;;;;5048085;28;20037;-83
2021/12/01 00:58:00;;;;;;;3.65;1.20;;;4.90;89.90;;;;;;5031885;28;19909;-82
2021/12/01 01:00:31;;;;;;;3.40;1.92;;;4.90;89.70;;;;;;5029370;28;20029;-83
2021/12/01 01:02:58;;;;;;;3.72;1.80;;;4.90;89.70;;;;;;5041284;28;20025;-82
2021/12/01 01:05:25;;;;;;;6.35;1.30;;;4.90;89.90;;;;;;5042304;28;20454;-83
2021/12/01 01:08:07;;;;;;;4.65;0.93;;;4.90;89.80;;;;;;5043869;28;20013;-81
2021/12/01 01:16:22;;;;;;;2.88;0.93;;;5.00;89.00;;;;;;5081666;28;20072;-80
2021/12/01 01:19:08;;;;;;;1.88;1.00;;;5.00;88.90;;;;;;5081594;28;20013;-81
2021/12/01 01:21:38;;;;;;;2.63;1.35;;;5.00;88.60;;;;;;5064438;28;20027;-81
2021/12/01 01:24:06;;;;;;;2.30;1.20;;;5.00;87.90;;;;;;5081457;28;20020;-80
2021/12/01 01:26:35;;;;;;;2.17;1.23;;;5.00;87.70;;;;;;5081312;28;20026;-80
2021/12/01 01:29:05;;;;;;;6.18;1.20;;;5.00;87.70;;;;;;5055116;28;20044;-82
2021/12/01 01:31:46;;;;;;;2.85;1.10;;;5.00;88.20;;;;;;5045778;28;20098;-82
2021/12/01 01:34:14;;;;;;;3.03;1.30;;;5.00;88.40;;;;;;5044037;28;20043;-82
2021/12/01 01:36:40;;;;;;;2.45;1.10;;;5.00;88.30;;;;;;5039374;28;20462;-81
2021/12/01 01:39:07;;;;;;;2.08;1.33;;;5.10;88.20;;;;;;5037775;28;20045;-81
2021/12/01 01:41:35;;;;;;;2.10;1.13;;;5.00;87.70;;;;;;5037835;28;20028;-82
2021/12/01 01:44:02;;;;;;;3.88;1.27;;;5.10;87.60;;;;;;5055889;28;20148;-81
2021/12/01 01:46:37;;;;;;;2.05;1.08;;;5.10;87.70;;;;;;5021668;28;20021;-82
2021/12/01 01:49:34;;;;;;;1.65;1.02;;;5.10;88.00;;;;;;5025280;28;20022;-82
2021/12/01 01:51:59;;;;;;;3.75;1.45;;;5.10;87.80;;;;;;5043784;28;20505;-81
2021/12/01 01:54:27;;;;;;;1.38;0.80;;;5.10;87.50;;;;;;5060001;28;20033;-82
2021/12/01 01:56:55;;;;;;;2.28;1.40;;;5.10;87.80;;;;;;5059129;28;20466;-82
2021/12/01 01:59:22;;;;;;;3.30;1.13;;;5.10;87.80;;;;;;5061456;28;20049;-82
2021/12/01 02:01:56;;;;;;;4.80;1.27;;;5.10;88.50;;;;;;5043794;28;20127;-81
2021/12/01 02:04:27;;;;;;;2.97;1.17;;;5.10;87.40;;;;;;5065816;28;20025;-82
2021/12/01 02:06:55;;;;;;;2.97;1.20;;;5.10;87.20;;;;;;5060583;28;20040;-82
2021/12/01 02:09:36;;;;;;;1.80;1.00;;;5.10;87.00;;;;;;5061018;28;20073;-82
2021/12/01 02:12:04;;;;;;;;;;;5.20;87.10;;;;;;5062607;28;20025;-81
2021/12/01 02:14:33;;;;;;;2.72;1.20;;;5.10;86.90;;;;;;5042743;28;19916;-81
2021/12/01 02:17:03;;;;;;;5.82;1.27;;;5.10;87.20;;;;;;5025718;28;20496;-82
2021/12/01 02:19:30;;;;;;;4.13;1.33;;;5.10;87.30;;;;;;5026444;28;20040;-82
2021/12/01 02:21:57;;;;;;;7.15;1.20;;;5.10;87.00;;;;;;5062315;28;20048;-82
2021/12/01 02:24:23;;;;;;;4.53;1.13;;;5.10;87.10;;;;;;5042835;28;20025;-82
2021/12/01 02:26:51;;;;;;;2.78;1.20;;;5.10;87.20;;;;;;5056518;28;20017;-82
2021/12/01 02:29:22;;;;;;;2.92;1.15;;;5.10;87.20;;;;;;5022335;28;20037;-82
2021/12/01 02:31:50;;;;;;;3.50;1.90;;;5.10;86.40;;;;;;5043084;28;20028;-82
2021/12/01 02:34:21;;;;;;;2.28;1.02;;;5.10;86.10;;;;;;5042851;28;20033;-82
2021/12/01 02:36:57;;;;;;;5.00;1.30;;;5.20;86.40;;;;;;5039851;28;20041;-81
2021/12/01 02:39:26;;;;;;;2.95;1.20;;;5.20;86.00;;;;;;5056002;28;20041;-81
2021/12/01 02:42:00;;;;;;;5.85;1.52;;;5.20;86.00;;;;;;5037980;28;20079;-81
2021/12/01 02:44:27;;;;;;;3.78;1.17;;;5.20;86.10;;;;;;5022470;28;20037;-81
2021/12/01 02:46:54;;;;;;;6.88;1.60;;;5.20;86.10;;;;;;5022141;28;20025;-82
2021/12/01 02:49:24;;;;;;;4.45;1.30;;;5.20;86.00;;;;;;5056422;28;20025;-82
2021/12/01 02:51:57;;;;;;;2.65;1.27;;;5.10;86.00;;;;;;5039364;28;20023;-80
2021/12/01 02:54:29;;;;;;;6.80;1.58;;;5.10;86.20;;;;;;5056383;28;20024;-83
2021/12/01 02:56:56;;;;;;;2.08;1.13;;;5.10;86.50;;;;;;5038013;28;20037;-83
2021/12/01 02:59:24;;;;;;;4.93;1.50;;;5.10;86.60;;;;;;5020789;28;20033;-82
2021/12/01 03:02:03;;;;;;;4.80;2.35;;;5.10;86.50;;;;;;5037878;28;20025;-82
2021/12/01 03:04:30;;;;;;;2.67;1.30;;;5.10;86.10;;;;;;5037525;28;20021;-83
2021/12/01 03:06:59;;;;;;;2.95;1.02;;;5.10;86.70;;;;;;5036527;28;20108;-83
2021/12/01 03:09:26;;;;;;;2.40;1.42;;;5.10;85.90;;;;;;5054053;28;20029;-82
2021/12/01 03:11:54;;;;;;;5.18;1.60;;;5.10;85.70;;;;;;5057078;28;20092;-82
2021/12/01 03:14:21;;;;;;;4.22;1.17;;;5.00;85.40;;;;;;5041849;28;20025;-82
2021/12/01 03:16:51;;;;;;;4.28;1.45;;;5.00;85.40;;;;;;5060375;28;20032;-82
2021/12/01 03:19:17;;;;;;;2.72;1.30;;;5.10;85.30;;;;;;5045076;28;20135;-82
2021/12/01 03:21:44;;;;;;;4.93;1.45;;;5.00;85.10;;;;;;5044378;28;20052;-81
2021/12/01 03:24:13;;;;;;;4.80;1.38;;;5.00;84.40;;;;;;5043032;28;20083;-82
2021/12/01 03:26:41;;;;;;;4.60;1.27;;;5.00;84.50;;;;;;5021264;28;20029;-82
2021/12/01 03:29:14;;;;;;;4.68;1.17;;;4.90;84.70;;;;;;5036176;28;20112;-82
2021/12/01 03:31:47;;;;;;;2.83;1.52;;;4.90;84.90;;;;;;5037218;28;20522;-82
2021/12/01 03:34:13;;;;;;;1.77;1.23;;;4.80;84.80;;;;;;5019435;28;20029;-81
2021/12/01 03:36:40;;;;;;;3.55;1.30;;;4.80;85.10;;;;;;5035814;28;20017;-82
2021/12/01 03:39:08;;;;;;;2.15;1.15;;;4.70;85.30;;;;;;5035655;28;20040;-81
2021/12/01 03:41:35;;;;;;;3.10;1.33;;;4.70;85.30;;;;;;5053471;28;20482;-82
2021/12/01 03:44:03;;;;;;;3.83;1.60;;;4.60;85.20;;;;;;5035942;28;20063;-82
2021/12/01 03:46:30;;;;;;;3.08;1.10;;;4.60;85.20;;;;;;5056384;28;20029;-81
2021/12/01 03:48:56;;;;;;;4.55;1.17;;;4.50;85.30;;;;;;5057280;28;20025;-82
2021/12/01 03:51:24;;;;;;;3.50;1.25;;;4.40;85.50;;;;;;5058495;28;20025;-81
2021/12/01 03:53:54;;;;;;;3.95;1.42;;;4.30;86.10;;;;;;5039381;28;20025;-80
2021/12/01 03:56:23;;;;;;;2.78;1.15;;;4.20;86.50;;;;;;5036752;28;20025;-81
2021/12/01 03:58:51;;;;;;;4.78;1.67;;;4.10;87.00;;;;;;5020497;28;20044;-82
2021/12/01 04:01:18;;;;;;;2.15;1.17;;;4.10;87.70;;;;;;5053093;28;20067;-81
2021/12/01 04:03:45;;;;;;;3.17;1.48;;;3.90;88.00;;;;;;5037661;28;20032;-80
2021/12/01 04:06:13;;;;;;;4.85;2.00;;;3.90;88.50;;;;;;5055429;28;20028;-80
2021/12/01 04:08:39;;;;;;;5.05;1.88;;;3.80;89.00;;;;;;5059138;28;20021;-80
2021/12/01 04:11:06;;;;;;;4.45;2.15;;;3.80;89.40;;;;;;5041151;28;20051;-80
2021/12/01 04:13:32;;;;;;;8.43;3.53;;;3.60;89.80;;;;;;5039351;28;20074;-81
2021/12/01 04:15:59;;;;;;;4.15;1.77;;;3.60;90.30;;;;;;5039039;28;20032;-81
2021/12/01 04:18:25;;;;;;;5.18;1.85;;;3.50;90.40;;;;;;5059042;28;20032;-81
2021/12/01 04:20:52;;;;;;;6.18;1.92;;;3.40;90.70;;;;;;5041473;28;20394;-82
2021/12/01 04:23:21;;;;;;;10.65;3.67;;;3.40;91.00;;;;;;5061813;28;20017;-81
2021/12/01 04:25:47;;;;;;;6.32;2.67;;;3.30;91.20;;;;;;5043500;28;20381;-81
2021/12/01 04:28:13;;;;;;;8.65;2.05;;;3.20;91.60;;;;;;5061078;28;20513;-82
2021/12/01 04:30:41;;;;;;;10.30;2.45;;;3.20;91.70;;;;;;5059789;28;20031;-81
2021/12/01 04:33:09;;;;;;;11.95;3.45;;;3.10;91.80;;;;;;5044853;28;20043;-81
2021/12/01 04:35:36;;;;;;;4.00;2.13;;;3.10;92.00;;;;;;5062146;28;20028;-82
2021/12/01 04:38:03;;;;;;;4.13;1.70;;;3.00;92.10;;;;;;5042912;28;20025;-82
2021/12/01 04:40:31;;;;;;;5.95;2.13;;;3.00;92.10;;;;;;5040174;28;20045;-82
2021/12/01 04:42:58;;;;;;;7.50;2.75;;;3.00;92.20;;;;;;5041864;28;20047;-82
2021/12/01 04:45:25;;;;;;;14.30;4.00;;;2.90;92.30;;;;;;5058542;28;20550;-82
2021/12/01 04:47:54;;;;;;;8.35;2.75;;;2.90;92.70;;;;;;5058056;28;20024;-81
2021/12/01 04:50:30;;;;;;;9.10;2.60;;;2.90;92.80;;;;;;5040860;28;20116;-82
2021/12/01 04:52:58;;;;;;;3.15;1.55;;;2.80;92.80;;;;;;5058985;28;20043;-82
2021/12/01 04:55:29;;;;;;;7.63;2.20;;;2.80;92.90;;;;;;5057604;28;20484;-82
2021/12/01 04:57:57;;;;;;;9.50;2.30;;;2.80;93.00;;;;;;5057712;28;20466;-82
2021/12/01 05:00:28;;;;;;;6.25;2.40;;;2.70;93.00;;;;;;5059393;28;20036;-82
2021/12/01 05:02:56;;;;;;;;;;;2.70;93.10;;;;;;5042473;28;20021;-82
2021/12/01 05:05:24;;;;;;;7.70;3.33;;;2.70;93.50;;;;;;5057903;28;19909;-82
2021/12/01 05:07:55;;;;;;;11.30;3.45;;;2.60;93.90;;;;;;5057125;28;20017;-82
2021/12/01 05:10:22;;;;;;;6.53;3.50;;;2.60;94.10;;;;;;5056891;28;20115;-83
2021/12/01 05:12:50;;;;;;;11.15;4.40;;;2.60;94.30;;;;;;5040677;28;20386;-82
2021/12/01 05:15:18;;;;;;;10.55;3.83;;;2.60;94.40;;;;;;5057619;28;20436;-82
2021/12/01 05:17:45;;;;;;;11.75;4.65;;;2.60;94.40;;;;;;5057779;28;20013;-81
2021/12/01 05:20:13;;;;;;;15.45;4.97;;;2.60;94.40;;;;;;5057261;28;20029;-82
2021/12/01 05:22:47;;;;;;;13.68;4.47;;;2.60;94.40;;;;;;5070024;28;20055;-81
2021/12/01 05:25:14;;;;;;;8.38;4.05;;;2.60;94.60;;;;;;5079651;28;20076;-79
2021/12/01 05:27:41;;;;;;;13.13;4.10;;;2.60;94.90;;;;;;5060726;28;20014;-81
2021/12/01 05:30:08;;;;;;;9.45;5.05;;;2.60;95.10;;;;;;5079049;28;20056;-81
2021/12/01 05:32:36;;;;;;;11.30;4.13;;;2.60;95.20;;;;;;5079677;28;20037;-81
2021/12/01 05:35:02;;;;;;;10.52;3.78;;;2.70;95.30;;;;;;5081007;28;20065;-81
2021/12/01 05:37:30;;;;;;;16.50;3.72;;;2.70;95.40;;;;;;5078748;28;20017;-82
2021/12/01 05:39:57;;;;;;;11.07;3.85;;;2.80;95.40;;;;;;5060976;28;20045;-82
2021/12/01 05:42:25;;;;;;;7.80;3.67;;;2.80;95.40;;;;;;5073093;28;20025;-82
2021/12/01 05:44:52;;;;;;;4.75;3.95;;;2.90;95.50;;;;;;5075908;28;20013;-82
2021/12/01 05:47:32;;;;;;;10.32;3.85;;;2.90;95.40;;;;;;5076247;28;20024;-82
2021/12/01 05:49:59;;;;;;;8.05;3.90;;;3.00;95.40;;;;;;5077951;28;20127;-81
2021/12/01 05:52:24;;;;;;;8.50;3.92;;;3.00;95.30;;;;;;5059081;28;20024;-82
2021/12/01 05:54:52;;;;;;;11.50;3.80;;;3.00;95.30;;;;;;5040938;28;20033;-82
2021/12/01 05:57:19;;;;;;;12.73;4.72;;;3.10;95.20;;;;;;5075662;28;20082;-82
2021/12/01 05:59:46;;;;;;;9.70;4.45;;;3.10;95.10;;;;;;5057276;28;20047;-81
2021/12/01 06:02:12;;;;;;;13.55;4.57;;;3.20;95.10;;;;;;5057792;28;20051;-83
2021/12/01 06:04:39;;;;;;;14.13;5.00;;;3.20;95.00;;;;;;5058260;28;20036;-81
2021/12/01 06:07:07;;;;;;;13.85;4.97;;;3.30;94.80;;;;;;5075652;28;20025;-80
2021/12/01 06:09:34;;;;;;;17.67;5.53;;;3.30;94.50;;;;;;5075742;28;20021;-82
2021/12/01 06:12:01;;;;;;;20.63;6.40;;;3.40;94.30;;;;;;5075109;28;20075;-81
2021/12/01 06:14:27;;;;;;;22.40;6.45;;;3.40;94.20;;;;;;5058395;28;20120;-80
2021/12/01 06:16:55;;;;;;;19.05;6.25;;;3.40;94.10;;;;;;5062929;28;20029;-81
2021/12/01 06:19:22;;;;;;;18.58;5.50;;;3.40;94.00;;;;;;5078207;28;20042;-83
2021/12/01 06:21:47;;;;;;;18.85;6.05;;;3.40;93.90;;;;;;5057738;28;20388;-82
2021/12/01 06:24:16;;;;;;;15.57;5.90;;;3.50;93.80;;;;;;5080927;28;20052;-83
2021/12/01 06:26:43;;;;;;;13.48;5.03;;;3.50;93.80;;;;;;5079038;28;20107;-78
2021/12/01 06:29:10;;;;;;;16.17;5.95;;;3.50;93.60;;;;;;5077645;28;20021;-76
2021/12/01 06:31:37;;;;;;;13.40;6.53;;;3.40;93.60;;;;;;5077043;28;20033;-77
2021/12/01 06:34:05;;;;;;;27.23;7.18;;;3.40;93.70;;;;;;5075312;28;20027;-78
2021/12/01 06:36:31;;;;;;;18.27;6.72;;;3.30;93.70;;;;;;5085181;28;20031;-76
2021/12/01 06:38:57;;;;;;;19.15;6.35;;;3.30;93.70;;;;;;5083355;28;20045;-78
2021/12/01 06:41:23;;;;;;;19.60;6.75;;;3.30;93.70;;;;;;5075479;28;20028;-76
2021/12/01 06:43:48;;;;;;;22.08;7.53;;;3.40;93.70;;;;;;5076185;28;20028;-76
2021/12/01 06:46:16;;;;;;;19.15;7.45;;;3.40;93.70;;;;;;5058008;28;20178;-79
2021/12/01 06:48:42;;;;;;;18.58;7.20;;;3.50;93.60;;;;;;5073920;28;20039;-78
2021/12/01 06:51:09;;;;;;;18.85;5.68;;;3.50;93.60;;;;;;5056424;28;20385;-78
2021/12/01 06:53:36;;;;;;;23.02;7.13;;;3.70;93.20;;;;;;5055962;28;20029;-76
2021/12/01 06:56:03;;;;;;;21.70;7.03;;;3.80;93.10;;;;;;5074407;28;20458;-78
2021/12/01 06:58:29;;;;;;;22.35;6.70;;;3.90;92.70;;;;;;5055911;28;20028;-76
2021/12/01 07:00:57;;;;;;;32.28;6.50;;;4.00;92.20;;;;;;5039000;28;20028;-76
2021/12/01 07:03:24;;;;;;;15.20;5.93;;;4.10;91.80;;;;;;5053761;28;20017;-77
2021/12/01 07:05:52;;;;;;;14.80;4.45;;;4.20;91.10;;;;;;5054604;28;20084;-78
2021/12/01 07:08:18;;;;;;;13.85;4.22;;;4.20;90.40;;;;;;5054190;28;20484;-78
2021/12/01 07:10:44;;;;;;;8.77;3.60;;;4.20;90.10;;;;;;5054139;28;20017;-78
2021/12/01 07:13:12;;;;;;;13.27;4.15;;;4.20;89.20;;;;;;5054623;28;20032;-77
2021/12/01 07:15:39;;;;;;;14.10;4.70;;;4.20;89.50;;;;;;5054375;28;20017;-79
2021/12/01 07:18:07;;;;;;;17.77;4.63;;;4.30;90.00;;;;;;5039183;28;20027;-78
2021/12/01 07:20:47;;;;;;;20.23;5.80;;;4.30;89.50;;;;;;5020701;28;20025;-78
2021/12/01 07:23:14;;;;;;;15.43;5.80;;;4.40;89.10;;;;;;5050303;28;20120;-78
2021/12/01 07:25:41;;;;;;;23.48;7.00;;;4.50;89.00;;;;;;5035687;28;20021;-77
2021/12/01 07:28:10;;;;;;;19.58;7.10;;;4.60;89.20;;;;;;5054162;28;20029;-79
2021/12/01 07:30:37;;;;;;;20.90;7.38;;;4.70;88.70;;;;;;5035877;28;20116;-78
2021/12/01 07:33:04;;;;;;;18.92;6.88;;;4.70;88.30;;;;;;5036391;28;20029;-79
2021/12/01 07:35:31;;;;;;;22.27;7.68;;;4.80;88.00;;;;;;5019515;28;20083;-79
2021/12/01 07:37:59;;;;;;;25.42;9.35;;;4.90;87.90;;;;;;5035165;28;20089;-79
2021/12/01 07:40:25;;;;;;;22.85;8.73;;;4.90;87.50;;;;;;5019101;28;20045;-78
2021/12/01 07:42:52;;;;;;;29.38;10.55;;;5.00;87.50;;;;;;5035737;28;20033;-77
2021/12/01 07:45:20;;;;;;;24.23;8.40;;;5.10;87.50;;;;;;5019205;28;20013;-77
2021/12/01 07:47:48;;;;;;;32.08;9.45;;;5.10;87.40;;;;;;5018810;28;20056;-76
2021/12/01 07:50:15;;;;;;;22.77;8.93;;;5.20;87.20;;;;;;5035378;28;20400;-78
2021/12/01 07:52:41;;;;;;;20.20;9.35;;;5.20;88.10;;;;;;5052452;28;20028;-77
2021/12/01 07:55:08;;;;;;;20.33;7.50;;;5.20;87.80;;;;;;5052425;28;20094;-79
2021/12/01 07:57:37;;;;;;;19.10;9.23;;;5.20;88.00;;;;;;5016322;28;20033;-78
2021/12/01 08:00:09;;;;;;;22.48;6.97;;;5.10;88.60;;;;;;5052778;28;20438;-79
2021/12/01 08:02:36;;;;;;;27.50;9.13;;;5.10;88.50;;;;;;5033638;28;20037;-78
2021/12/01 08:05:10;;;;;;;21.45;6.85;;;5.10;88.50;;;;;;5053170;28;20017;-77
2021/12/01 08:07:37;;;;;;;20.25;7.03;;;5.10;88.30;;;;;;5036217;28;20025;-78
2021/12/01 08:10:07;;;;;;;19.20;7.25;;;5.10;88.80;;;;;;5050397;28;20045;-78
2021/12/01 08:12:34;;;;;;;20.05;7.50;;;5.00;89.10;;;;;;5022705;28;20029;-77
2021/12/01 08:15:06;;;;;;;22.58;8.20;;;5.00;89.40;;;;;;5034411;28;20025;-76
2021/12/01 08:17:33;;;;;;;18.73;8.38;;;5.00;89.90;;;;;;5052136;28;20033;-77
2021/12/01 08:20:03;;;;;;;15.05;6.15;;;4.90;90.00;;;;;;5052377;28;20033;-77
2021/12/01 08:22:30;;;;;;;21.05;7.55;;;4.90;90.20;;;;;;5018732;28;20033;-78
2021/12/01 08:24:57;;;;;;;27.08;7.90;;;4.90;90.40;;;;;;5052207;28;20078;-76
2021/12/01 08:27:27;;;;;;;20.38;7.90;;;4.90;90.50;;;;;;5033825;28;20091;-77
2021/12/01 08:30:01;;;;;;;23.50;8.45;;;4.80;91.00;;;;;;5034713;28;20108;-77
2021/12/01 08:32:28;;;;;;;15.73;7.80;;;4.80;91.20;;;;;;5052810;28;20032;-77
2021/12/01 08:34:55;;;;;;;34.90;10.57;;;4.90;91.40;;;;;;5052743;28;20020;-78
2021/12/01 08:37:21;;;;;;;13.98;6.65;;;4.90;91.60;;;;;;5033962;28;20040;-77
2021/12/01 08:39:51;;;;;;;23.85;8.25;;;5.00;91.70;;;;;;5033283;28;20048;-78
2021/12/01 08:42:22;;;;;;;18.50;7.25;;;5.00;91.90;;;;;;5034959;28;20116;-79
2021/12/01 08:44:51;;;;;;;18.70;7.55;;;5.00;91.90;;;;;;5035384;28;20048;-78
2021/12/01 08:47:20;;;;;;;19.98;8.10;;;5.10;92.00;;;;;;5034296;28;20094;-76
2021/12/01 08:49:49;;;;;;;20.45;7.72;;;5.10;92.10;;;;;;5051116;28;20036;-77
2021/12/01 08:52:14;;;;;;;23.33;8.38;;;5.10;92.20;;;;;;5050940;28;20046;-77
2021/12/01 08:54:43;;;;;;;13.85;7.68;;;5.10;92.30;;;;;;5050982;28;20119;-81
2021/12/01 08:57:10;;;;;;;19.67;8.93;;;5.20;92.20;;;;;;5052606;28;20021;-80
2021/12/01 08:59:37;;;;;;;27.20;9.73;;;5.20;92.10;;;;;;5051285;28;20095;-79
2021/12/01 09:02:05;;;;;;;15.65;7.85;;;5.30;92.20;;;;;;5051735;28;20025;-80
2021/12/01 09:04:30;;;;;;;24.70;9.43;;;5.30;92.10;;;;;;5052634;28;20021;-80
2021/12/01 09:06:57;;;;;;;21.38;7.45;;;5.40;92.30;;;;;;5054307;28;20032;-78
2021/12/01 09:09:26;;;;;;;22.85;7.63;;;5.40;92.30;;;;;;5056105;28;20025;-78
2021/12/01 09:11:54;;;;;;;13.43;7.13;;;5.50;92.30;;;;;;5037981;28;20125;-76
2021/12/01 09:14:23;;;;;;;16.50;7.63;;;5.60;92.20;;;;;;5041138;28;20373;-74
2021/12/01 09:16:52;;;;;;;17.13;6.68;;;5.60;92.30;;;;;;5048926;28;20036;-74
2021/12/01 09:19:19;;;;;;;14.82;6.43;;;5.60;92.20;;;;;;5053051;28;20033;-77
2021/12/01 09:21:46;;;;;;;14.05;6.40;;;5.70;92.30;;;;;;5045559;28;20028;-77
2021/12/01 09:24:14;;;;;;;19.90;7.93;;;5.70;92.30;;;;;;5044175;28;20025;-77
2021/12/01 09:26:45;;;;;;;14.30;6.03;;;5.70;92.20;;;;;;5052064;28;20021;-77
2021/12/01 09:29:11;;;;;;;14.85;6.35;;;5.80;92.40;;;;;;5038135;28;20466;-76
2021/12/01 09:31:39;;;;;;;12.20;6.32;;;5.80;92.60;;;;;;5062324;28;20085;-78
2021/12/01 09:34:07;;;;;;;14.50;6.60;;;5.80;92.80;;;;;;5071148;28;20051;-78
2021/12/01 09:36:35;;;;;;;11.55;5.80;;;5.80;93.00;;;;;;5070296;28;20055;-78
2021/12/01 09:39:02;;;;;;;16.23;6.30;;;5.80;93.30;;;;;;5070703;28;20076;-78
2021/12/01 09:41:29;;;;;;;13.07;6.65;;;5.90;93.50;;;;;;5062529;28;20031;-78
2021/12/01 09:43:56;;;;;;;14.50;6.63;;;5.90;93.50;;;;;;5058312;28;20484;-76
2021/12/01 09:46:24;;;;;;;13.38;7.13;;;5.90;93.40;;;;;;5056332;28;20125;-80
2021/12/01 09:48:52;;;;;;;21.67;8.13;;;6.00;93.40;;;;;;5055050;28;20092;-76
2021/12/01 09:51:20;;;;;;;25.13;8.60;;;6.00;93.30;;;;;;5038143;28;20021;-80
2021/12/01 09:53:49;;;;;;;19.52;7.80;;;6.00;93.30;;;;;;5055059;28;20064;-78
2021/12/01 09:56:25;;;;;;;14.35;6.88;;;6.10;93.40;;;;;;5055362;28;20022;-75
2021/12/01 09:58:52;;;;;;;14.25;6.53;;;6.10;93.50;;;;;;5055540;28;20032;-78
2021/12/01 10:01:28;;;;;;;10.30;5.88;;;6.10;93.50;;;;;;5055141;28;20026;-77
2021/12/01 10:03:54;;;;;;;11.07;4.88;;;6.20;93.50;;;;;;5021574;28;20033;-79
2021/12/01 10:06:35;;;;;;;21.05;7.65;;;6.20;93.70;;;;;;5054963;28;20099;-72
2021/12/01 10:09:07;;;;;;;10.75;4.70;;;6.30;93.60;;;;;;5055553;28;20025;-78
2021/12/01 10:11:43;;;;;;;12.57;5.22;;;6.40;93.70;;;;;;5054702;28;20420;-78
2021/12/01 10:14:24;;;;;;;12.63;4.90;;;6.50;93.60;;;;;;5037117;28;20044;-78
2021/12/01 10:16:55;;;;;;;4.22;2.75;;;6.60;93.60;;;;;;5036626;28;20425;-79
2021/12/01 10:19:42;;;;;;;7.45;3.75;;;6.60;93.30;;;;;;5053804;28;20047;-78
2021/12/01 10:22:10;;;;;;;6.47;3.50;;;6.70;93.20;;;;;;5019817;28;20041;-79
2021/12/01 10:24:40;;;;;;;7.53;3.75;;;6.60;93.00;;;;;;5037228;28;20036;-78
2021/12/01 10:27:13;;;;;;;6.68;3.83;;;6.60;93.20;;;;;;5020350;28;20021;-78
2021/12/01 10:29:49;;;;;;;7.95;3.50;;;6.70;93.40;;;;;;5019863;28;20537;-78
2021/12/01 10:32:18;;;;;;;9.57;3.70;;;6.70;93.30;;;;;;5036319;28;20117;-79
2021/12/01 10:34:52;;;;;;;3.70;2.53;;;6.70;93.30;;;;;;5020182;28;20111;-79
2021/12/01 10:37:29;;;;;;;3.72;3.00;;;6.70;93.40;;;;;;5051920;28;20033;-77
2021/12/01 10:40:09;;;;;;;4.03;3.10;;;6.70;93.80;;;;;;5019568;28;20049;-77
2021/12/01 10:43:07;;;;;;;5.10;2.72;;;6.80;93.90;;;;;;5053893;28;20496;-79
2021/12/01 10:45:45;;;;;;;3.67;2.20;;;6.80;94.00;;;;;;5054242;28;20156;-78
2021/12/01 10:48:32;;;;;;;4.88;2.30;;;6.90;94.10;;;;;;5036319;28;20036;-78
2021/12/01 10:51:05;;;;;;;4.07;2.22;;;7.00;94.30;;;;;;5052401;28;20029;-77
2021/12/01 10:53:33;;;;;;;5.60;2.42;;;7.10;94.30;;;;;;5053854;28;20474;-78
2021/12/01 10:56:05;;;;;;;1.90;1.75;;;7.20;94.10;;;;;;5035689;28;20021;-78
2021/12/01 10:58:39;;;;;;;2.90;1.80;;;7.30;93.40;;;;;;5035899;28;20032;-78
2021/12/01 11:01:18;;;;;;;3.40;1.80;;;7.40;93.60;;;;;;5035858;28;20052;-77
2021/12/01 11:03:47;;;;;;;5.32;2.08;;;7.50;93.30;;;;;;5053522;28;20047;-77
2021/12/01 11:06:33;;;;;;;2.28;1.70;;;7.50;93.10;;;;;;5036041;28;20025;-77
2021/12/01 11:09:03;;;;;;;4.35;1.85;;;7.60;92.70;;;;;;5038843;28;20032;-85
2021/12/01 11:11:47;;;;;;;3.50;2.30;;;7.60;92.20;;;;;;5053886;28;20033;-80
2021/12/01 11:14:19;;;;;;;4.90;1.98;;;7.60;92.50;;;;;;5036254;28;20118;-85
2021/12/01 11:16:47;;;;;;;5.43;2.15;;;7.50;92.90;;;;;;5035770;28;20056;-84
2021/12/01 11:19:14;;;;;;;2.33;1.55;;;7.50;92.70;;;;;;5053525;28;20037;-76
2021/12/01 11:21:42;;;;;;;2.88;1.70;;;7.40;93.00;;;;;;5034060;28;20028;-76
2021/12/01 11:24:11;;;;;;;4.00;1.48;;;7.40;93.10;;;;;;5035208;28;20028;-78
2021/12/01 11:26:54;;;;;;;3.47;1.90;;;7.40;93.30;;;;;;5051986;28;20068;-78
2021/12/01 11:29:22;;;;;;;2.88;1.42;;;7.30;93.50;;;;;;5051768;28;20112;-77
2021/12/01 11:31:49;;;;;;;5.28;1.77;;;7.30;93.60;;;;;;5053340;28;20458;-77
2021/12/01 11:34:22;;;;;;;5.05;2.20;;;7.20;93.90;;;;;;5035297;28;20035;-79
2021/12/01 11:36:51;;;;;;;3.25;2.15;;;7.20;94.00;;;;;;5018950;28;20031;-77
2021/12/01 11:39:33;;;;;;;3.47;1.70;;;7.20;94.30;;;;;;5035437;28;20049;-79
2021/12/01 11:42:01;;;;;;;4.68;2.00;;;7.20;94.20;;;;;;5035395;28;20497;-82
2021/12/01 11:44:27;;;;;;;4.40;2.03;;;7.10;94.60;;;;;;5031935;28;20547;-79
2021/12/01 11:46:53;;;;;;;4.65;2.17;;;7.10;94.80;;;;;;5032343;28;20017;-77
2021/12/01 11:49:24;;;;;;;4.47;2.13;;;7.10;95.00;;;;;;5053000;28;20074;-78
2021/12/01 11:52:15;;;;;;;15.05;2.10;;;7.00;95.00;;;;;;5035094;28;20025;-79
2021/12/01 11:55:01;;;;;;;2.88;1.90;;;7.00;95.30;;;;;;5035441;28;20062;-78
2021/12/01 11:57:41;;;;;;;5.88;2.63;;;7.00;95.50;;;;;;5051131;28;20048;-78
2021/12/01 12:00:09;;;;;;;3.50;1.92;;;6.90;95.50;;;;;;5035009;28;20474;-74
2021/12/01 12:02:36;;;;;;;5.90;3.20;;;6.90;96.00;;;;;;5034774;28;20025;-76
2021/12/01 12:05:21;;;;;;;11.75;3.83;;;6.90;96.40;;;;;;5053098;28;20387;-74
2021/12/01 12:07:48;;;;;;;9.90;3.33;;;6.90;97.20;;;;;;5052605;28;20036;-74
2021/12/01 12:10:16;;;;;;;15.45;4.88;;;6.90;96.90;;;;;;5034622;28;20024;-75
2021/12/01 12:12:58;;;;;;;7.85;4.47;;;7.00;96.80;;;;;;5018397;28;20063;-75
2021/12/01 12:15:48;;;;;;;11.55;4.40;;;7.20;96.10;;;;;;5052343;28;20552;-74
2021/12/01 12:18:36;;;;;;;16.50;4.80;;;7.20;95.80;;;;;;5052925;28;20056;-76
2021/12/01 12:21:14;;;;;;;6.05;3.05;;;7.20;95.50;;;;;;5038497;28;20088;-75
2021/12/01 12:23:45;;;;;;;8.27;3.72;;;7.30;95.10;;;;;;5033145;28;20073;-75
2021/12/01 12:26:10;;;;;;;8.68;3.33;;;7.20;94.90;;;;;;5034734;28;20395;-75
2021/12/01 12:28:45;;;;;;;8.23;3.50;;;7.20;95.00;;;;;;5034708;28;20035;-74
2021/12/01 12:31:23;;;;;;;10.00;4.47;;;7.20;95.00;;;;;;5035341;28;20353;-75
2021/12/01 12:33:56;;;;;;;9.85;3.50;;;7.30;94.80;;;;;;5035852;28;20025;-76
2021/12/01 12:37:06;;;;;;;14.65;4.55;;;7.30;94.80;;;;;;5035271;28;20035;-76
2021/12/01 12:39:47;;;;;;;9.80;3.83;;;7.40;95.00;;;;;;5054900;28;20053;-79
2021/12/01 12:42:15;;;;;;;19.08;3.25;;;7.40;94.70;;;;;;5038813;28;20027;-77
2021/12/01 12:45:03;;;;;;;4.90;2.75;;;7.40;94.50;;;;;;5056255;28;20025;-80
2021/12/01 12:47:47;;;;;;;5.35;2.40;;;7.50;94.20;;;;;;5056338;28;20021;-81
2021/12/01 12:50:33;;;;;;;4.03;1.90;;;7.50;93.70;;;;;;5038680;28;20029;-76
2021/12/01 12:53:07;;;;;;;3.72;1.98;;;7.60;93.30;;;;;;5021706;28;20025;-73
2021/12/01 12:55:43;;;;;;;6.07;2.22;;;7.60;92.60;;;;;;5056069;28;20029;-74
2021/12/01 12:58:37;;;;;;;3.00;1.70;;;7.60;92.50;;;;;;5037779;28;20113;-75
2021/12/01 13:01:02;;;;;;;6.00;2.35;;;7.70;92.00;;;;;;5055563;28;20512;-75
2021/12/01 13:03:31;;;;;;;4.43;1.65;;;7.70;91.80;;;;;;5055903;28;20010;-74
2021/12/01 13:06:05;;;;;;;2.95;1.73;;;7.70;91.80;;;;;;5037952;28;20033;-75
2021/12/01 13:08:47;;;;;;;3.75;1.90;;;7.80;91.80;;;;;;5020890;28;20025;-75
2021/12/01 13:11:23;;;;;;;3.97;2.35;;;7.80;90.70;;;;;;5055862;28;20021;-76
2021/12/01 13:14:00;;;;;;;4.10;2.30;;;7.80;90.60;;;;;;5022130;28;20029;-74